Time;durP1;ratioP1;P1;durP2;ratioP2;P2;SDS_P1;SDS_P2;PMS_P1;PMS_P2;Temp;Humidity;BMP_temperature;BMP_pressure;BME280_temperature;BME280_humidity;BME280_pressure;Samples;Min_cycle;Max_cycle;Signal;HPM_P1;HPM_P2
2021/04/02 00:01:25;;;;;;;39.47;29.63;;;12.70;99.00;;;;;;5051330;28;20555;-74
2021/04/02 00:03:52;;;;;;;41.33;28.33;;;12.70;99.20;;;;;;5051476;28;20598;-74
2021/04/02 00:06:19;;;;;;;38.23;27.80;;;12.70;99.40;;;;;;5051350;28;20539;-74
2021/04/02 00:08:45;;;;;;;43.17;29.77;;;12.60;99.70;;;;;;5051088;28;20555;-74
2021/04/02 00:11:13;;;;;;;41.53;28.10;;;12.60;99.90;;;;;;5050694;28;20531;-74
2021/04/02 00:13:40;;;;;;;37.17;27.57;;;12.40;99.90;;;;;;5050923;28;20547;-74
2021/04/02 00:16:08;;;;;;;40.27;28.30;;;12.20;99.90;;;;;;5051018;28;20535;-73
2021/04/02 00:18:35;;;;;;;38.70;30.63;;;12.10;99.90;;;;;;5046548;28;21030;-74
2021/04/02 00:21:04;;;;;;;36.90;25.60;;;11.80;99.90;;;;;;5050553;28;20460;-74
2021/04/02 00:23:31;;;;;;;32.73;23.70;;;11.70;99.90;;;;;;5050718;28;21106;-74
2021/04/02 00:25:58;;;;;;;42.20;26.03;;;11.50;99.90;;;;;;5050684;28;20448;-74
2021/04/02 00:28:24;;;;;;;39.67;26.00;;;11.40;99.90;;;;;;5050355;28;21014;-74
2021/04/02 00:30:52;;;;;;;41.17;28.27;;;11.40;99.90;;;;;;5051821;28;20476;-74
2021/04/02 00:33:21;;;;;;;43.90;30.53;;;11.50;99.90;;;;;;5050863;28;20534;-73
2021/04/02 00:35:48;;;;;;;41.73;31.17;;;11.70;99.90;;;;;;5051193;28;20452;-73
2021/04/02 00:38:14;;;;;;;43.83;29.40;;;11.80;99.90;;;;;;5050591;28;21006;-73
2021/04/02 00:40:43;;;;;;;43.30;30.03;;;11.90;99.90;;;;;;5050250;28;21080;-74
2021/04/02 00:43:10;;;;;;;47.33;32.93;;;12.00;99.90;;;;;;5050509;28;20442;-74
2021/04/02 00:45:37;;;;;;;42.63;30.43;;;12.00;99.90;;;;;;5050830;28;20448;-74
2021/04/02 00:48:05;;;;;;;39.20;30.00;;;12.00;99.90;;;;;;5050307;28;21016;-74
2021/04/02 00:50:38;;;;;;;34.73;27.13;;;12.10;99.90;;;;;;5050255;28;20531;-74
2021/04/02 00:53:05;;;;;;;37.07;24.70;;;12.10;99.90;;;;;;5050261;28;20479;-74
2021/04/02 00:55:31;;;;;;;36.80;23.33;;;12.20;99.90;;;;;;5050436;28;20821;-74
2021/04/02 00:57:58;;;;;;;36.07;23.70;;;12.20;99.90;;;;;;5050301;28;20539;-74
2021/04/02 01:00:26;;;;;;;31.77;24.13;;;12.20;99.90;;;;;;5050047;28;20471;-74
2021/04/02 01:02:54;;;;;;;36.63;22.80;;;12.10;99.90;;;;;;5050244;28;20452;-74
2021/04/02 01:05:25;;;;;;;33.93;20.90;;;12.00;99.90;;;;;;5050432;28;20538;-73
2021/04/02 01:07:52;;;;;;;34.23;22.73;;;12.00;99.90;;;;;;5049832;28;20571;-74
2021/04/02 01:10:20;;;;;;;32.67;22.50;;;11.90;99.90;;;;;;5049626;28;20486;-76
2021/04/02 01:12:48;;;;;;;26.70;20.67;;;11.80;99.90;;;;;;5050188;28;20539;-74
2021/04/02 01:15:21;;;;;;;25.57;21.40;;;11.70;99.90;;;;;;5049957;28;20532;-74
2021/04/02 01:17:51;;;;;;;24.47;19.40;;;11.50;99.90;;;;;;5050159;28;20556;-74
2021/04/02 01:20:19;;;;;;;31.17;21.00;;;11.40;99.90;;;;;;5049697;28;20448;-74
2021/04/02 01:22:46;;;;;;;27.60;21.03;;;11.30;99.90;;;;;;5050246;28;20530;-74
2021/04/02 01:25:24;;;;;;;26.60;20.30;;;11.20;99.90;;;;;;5050065;28;21211;-74
2021/04/02 01:28:10;;;;;;;26.97;19.90;;;11.00;99.90;;;;;;5049973;28;20480;-75
2021/04/02 01:30:39;;;;;;;27.93;20.37;;;10.90;99.90;;;;;;5049336;28;20444;-74
2021/04/02 01:33:07;;;;;;;29.10;20.50;;;10.80;99.90;;;;;;5049864;28;20458;-74
2021/04/02 01:35:35;;;;;;;29.73;21.57;;;10.80;99.90;;;;;;5049860;28;20444;-74
2021/04/02 01:38:08;;;;;;;25.33;20.43;;;10.80;99.90;;;;;;5049573;28;21314;-74
2021/04/02 01:40:36;;;;;;;25.03;18.83;;;10.70;99.90;;;;;;5049474;28;20530;-74
2021/04/02 01:43:07;;;;;;;26.10;19.10;;;10.60;99.90;;;;;;5049715;28;20879;-74
2021/04/02 01:45:34;;;;;;;26.73;17.67;;;10.50;99.90;;;;;;5049697;28;20796;-74
2021/04/02 01:48:02;;;;;;;24.93;17.00;;;10.30;99.90;;;;;;5049561;28;20529;-74
2021/04/02 01:50:29;;;;;;;28.17;19.07;;;10.30;99.90;;;;;;5049165;28;20538;-75
2021/04/02 01:52:57;;;;;;;28.10;17.60;;;10.10;99.90;;;;;;5049579;28;21237;-74
2021/04/02 01:55:24;;;;;;;29.67;18.13;;;10.10;99.90;;;;;;5049715;28;20526;-74
2021/04/02 01:57:52;;;;;;;26.57;18.17;;;10.10;99.90;;;;;;5049507;28;20539;-74
2021/04/02 02:00:23;;;;;;;24.20;16.57;;;10.10;99.90;;;;;;5049604;28;20831;-74
2021/04/02 02:02:52;;;;;;;23.00;18.13;;;9.90;99.90;;;;;;5049835;28;20527;-74
2021/04/02 02:05:19;;;;;;;19.73;15.10;;;9.90;99.90;;;;;;5049560;28;20943;-74
2021/04/02 02:07:48;;;;;;;18.37;14.00;;;9.80;99.90;;;;;;5049380;28;20523;-74
2021/04/02 02:10:18;;;;;;;21.27;13.73;;;9.90;99.90;;;;;;5049238;28;20523;-74
2021/04/02 02:12:46;;;;;;;18.33;14.20;;;10.00;99.90;;;;;;5049633;28;20543;-75
2021/04/02 02:15:15;;;;;;;16.43;13.03;;;9.90;99.90;;;;;;5049407;28;20991;-75
2021/04/02 02:17:45;;;;;;;16.90;12.80;;;9.80;99.90;;;;;;5049584;28;20543;-75
2021/04/02 02:20:13;;;;;;;21.60;14.10;;;9.60;99.90;;;;;;5049396;28;20531;-75
2021/04/02 02:22:41;;;;;;;19.77;13.33;;;9.50;99.90;;;;;;5051856;28;20531;-75
2021/04/02 02:25:09;;;;;;;16.90;12.67;;;9.30;99.90;;;;;;5052955;28;20930;-75
2021/04/02 02:27:37;;;;;;;17.53;12.50;;;9.20;99.90;;;;;;5052689;28;20583;-75
2021/04/02 02:30:08;;;;;;;20.60;14.10;;;9.10;99.90;;;;;;5052699;28;20446;-75
2021/04/02 02:32:35;;;;;;;17.90;13.20;;;9.00;99.90;;;;;;5052793;28;20452;-74
2021/04/02 02:35:01;;;;;;;17.93;12.40;;;8.90;99.90;;;;;;5052649;28;20490;-75
2021/04/02 02:37:28;;;;;;;15.77;11.57;;;8.90;99.90;;;;;;5052395;28;20543;-74
2021/04/02 02:39:55;;;;;;;14.97;12.10;;;8.80;99.90;;;;;;5052669;28;20447;-75
2021/04/02 02:42:22;;;;;;;15.77;12.03;;;8.70;99.90;;;;;;5052732;28;20539;-75
2021/04/02 02:44:49;;;;;;;17.20;13.10;;;8.70;99.90;;;;;;5052671;28;20582;-75
2021/04/02 02:47:15;;;;;;;13.33;11.17;;;8.60;99.90;;;;;;5052508;28;21194;-75
2021/04/02 02:49:43;;;;;;;16.03;11.40;;;8.60;99.90;;;;;;5052367;28;20532;-75
2021/04/02 02:52:10;;;;;;;16.90;11.40;;;8.70;99.90;;;;;;5052562;28;20543;-76
2021/04/02 02:54:39;;;;;;;15.73;9.90;;;8.60;99.90;;;;;;5052771;28;20548;-75
2021/04/02 02:57:09;;;;;;;16.07;12.00;;;8.60;99.90;;;;;;5052695;28;21154;-75
2021/04/02 02:59:38;;;;;;;13.03;9.83;;;8.50;99.90;;;;;;5052043;28;20536;-75
2021/04/02 03:02:06;;;;;;;15.03;8.80;;;8.50;99.90;;;;;;5052376;28;20574;-75
2021/04/02 03:04:35;;;;;;;15.03;9.53;;;8.50;99.90;;;;;;5052104;28;20590;-75
2021/04/02 03:07:03;;;;;;;14.23;10.30;;;8.40;99.90;;;;;;5052047;28;20487;-75
2021/04/02 03:09:31;;;;;;;12.00;9.80;;;8.40;99.90;;;;;;5052115;28;20448;-75
2021/04/02 03:11:58;;;;;;;13.20;8.80;;;8.40;99.90;;;;;;5052381;28;20452;-75
2021/04/02 03:14:27;;;;;;;13.47;9.37;;;8.30;99.90;;;;;;5052277;28;20807;-75
2021/04/02 03:16:55;;;;;;;14.93;11.40;;;8.20;99.90;;;;;;5051973;28;21060;-75
2021/04/02 03:19:24;;;;;;;15.30;11.00;;;8.30;99.90;;;;;;5052402;28;20451;-75
2021/04/02 03:21:53;;;;;;;14.87;10.17;;;8.40;99.90;;;;;;5052211;28;20451;-75
2021/04/02 03:24:19;;;;;;;12.37;9.63;;;8.50;99.90;;;;;;5052177;28;21129;-75
2021/04/02 03:26:50;;;;;;;14.40;9.10;;;8.60;99.90;;;;;;5052236;28;20443;-75
2021/04/02 03:29:18;;;;;;;12.63;8.00;;;8.70;99.90;;;;;;5052145;28;20452;-75
2021/04/02 03:31:46;;;;;;;9.70;7.63;;;8.70;99.90;;;;;;5051721;28;20526;-75
2021/04/02 03:34:16;;;;;;;17.80;8.43;;;8.70;99.90;;;;;;5052212;28;20526;-75
2021/04/02 03:36:45;;;;;;;9.80;7.90;;;8.60;99.90;;;;;;5051826;28;20510;-74
2021/04/02 03:39:14;;;;;;;14.63;7.37;;;8.60;99.90;;;;;;5052049;28;20463;-75
2021/04/02 03:41:43;;;;;;;12.27;8.13;;;8.60;99.90;;;;;;5051565;28;20543;-75
2021/04/02 03:44:13;;;;;;;11.77;6.23;;;8.50;99.90;;;;;;5052236;28;20530;-74
2021/04/02 03:46:42;;;;;;;10.57;5.80;;;8.50;99.90;;;;;;5052653;28;20535;-75
2021/04/02 03:49:15;;;;;;;8.03;5.73;;;8.50;99.90;;;;;;5052076;28;20974;-75
2021/04/02 03:51:43;;;;;;;8.60;5.73;;;8.50;99.90;;;;;;5052159;28;20535;-75
2021/04/02 03:54:11;;;;;;;6.93;5.40;;;8.50;99.90;;;;;;5057261;28;20512;-74
2021/04/02 03:56:42;;;;;;;7.53;4.50;;;8.50;99.90;;;;;;5067992;28;20947;-74
2021/04/02 03:59:09;;;;;;;13.23;5.23;;;8.40;99.90;;;;;;5068878;28;20536;-75
2021/04/02 04:01:42;;;;;;;7.37;4.30;;;8.30;99.90;;;;;;5058053;28;20522;-75
2021/04/02 04:04:11;;;;;;;11.17;5.67;;;8.40;99.90;;;;;;5051499;28;21017;-74
2021/04/02 04:06:39;;;;;;;8.00;4.23;;;8.30;99.90;;;;;;5051424;28;20917;-74
2021/04/02 04:09:11;;;;;;;6.17;4.50;;;8.30;99.90;;;;;;5052195;28;21045;-74
2021/04/02 04:11:39;;;;;;;7.20;3.70;;;8.30;99.90;;;;;;5031341;28;21007;-74
2021/04/02 04:14:07;;;;;;;4.90;3.70;;;8.20;99.90;;;;;;5030879;28;20473;-75
2021/04/02 04:16:36;;;;;;;4.70;4.07;;;8.10;99.90;;;;;;5031558;28;20547;-75
2021/04/02 04:19:04;;;;;;;7.60;3.53;;;8.10;99.90;;;;;;5031345;28;20560;-75
2021/04/02 04:21:35;;;;;;;5.27;3.50;;;8.00;99.90;;;;;;5031014;28;21042;-74
2021/04/02 04:24:02;;;;;;;7.77;3.27;;;7.90;99.90;;;;;;5031725;28;21002;-74
2021/04/02 04:26:31;;;;;;;4.73;3.70;;;7.80;99.90;;;;;;5031937;28;20955;-74
2021/04/02 04:28:58;;;;;;;3.93;3.43;;;7.70;99.90;;;;;;5031711;28;20507;-74
2021/04/02 04:31:26;;;;;;;7.77;3.63;;;7.60;99.90;;;;;;5043756;28;20475;-74
2021/04/02 04:33:54;;;;;;;4.70;3.10;;;7.50;99.90;;;;;;5050333;28;20443;-74
2021/04/02 04:36:22;;;;;;;6.70;3.47;;;7.50;99.90;;;;;;5050548;28;20550;-74
2021/04/02 04:38:51;;;;;;;4.80;3.40;;;7.50;99.90;;;;;;5050296;28;20498;-75
2021/04/02 04:41:19;;;;;;;5.07;3.43;;;7.40;99.90;;;;;;5050243;28;20444;-74
2021/04/02 04:43:46;;;;;;;4.40;3.37;;;7.40;99.90;;;;;;5050245;28;20530;-75
2021/04/02 04:46:12;;;;;;;7.60;4.10;;;7.30;99.90;;;;;;5050234;28;20540;-74
2021/04/02 04:48:39;;;;;;;8.87;4.27;;;7.20;99.90;;;;;;5050167;28;20571;-75
2021/04/02 04:51:08;;;;;;;5.40;3.20;;;7.10;99.90;;;;;;5050205;28;20539;-75
2021/04/02 04:53:37;;;;;;;6.93;3.90;;;7.00;99.90;;;;;;5050531;28;20472;-75
2021/04/02 04:56:07;;;;;;;5.90;3.43;;;6.80;99.90;;;;;;5050248;28;20938;-75
2021/04/02 04:58:37;;;;;;;6.00;3.97;;;6.70;99.90;;;;;;5050178;28;20535;-75
2021/04/02 05:01:08;;;;;;;5.73;3.70;;;6.60;99.90;;;;;;5049885;28;20444;-74
2021/04/02 05:03:36;;;;;;;5.50;3.80;;;6.50;99.90;;;;;;5050450;28;20869;-75
2021/04/02 05:06:03;;;;;;;6.40;4.20;;;6.60;99.90;;;;;;5049972;28;20454;-75
2021/04/02 05:08:34;;;;;;;6.50;4.27;;;6.60;99.90;;;;;;5049883;28;20976;-74
2021/04/02 05:11:01;;;;;;;6.70;3.97;;;6.50;99.90;;;;;;5049766;28;20539;-74
2021/04/02 05:13:32;;;;;;;6.23;3.93;;;6.50;99.90;;;;;;5049906;28;20602;-75
2021/04/02 05:15:59;;;;;;;9.77;3.97;;;6.50;99.90;;;;;;5050114;28;20927;-74
2021/04/02 05:18:28;;;;;;;7.63;4.20;;;6.50;99.90;;;;;;5049924;28;20551;-75
2021/04/02 05:20:55;;;;;;;6.30;3.70;;;6.50;99.90;;;;;;5049827;28;20514;-74
2021/04/02 05:23:22;;;;;;;6.00;4.27;;;6.60;99.90;;;;;;5049701;28;20444;-74
2021/04/02 05:25:49;;;;;;;5.10;4.00;;;6.60;99.90;;;;;;5049845;28;20444;-75
2021/04/02 05:28:16;;;;;;;6.40;3.70;;;6.50;99.90;;;;;;5049678;28;20489;-74
2021/04/02 05:30:43;;;;;;;6.60;4.10;;;6.60;99.90;;;;;;5049725;28;20527;-74
2021/04/02 05:33:09;;;;;;;7.27;3.80;;;6.70;99.90;;;;;;5049710;28;20526;-74
2021/04/02 05:35:36;;;;;;;8.03;4.03;;;6.70;99.90;;;;;;5049557;28;20451;-75
2021/04/02 05:38:03;;;;;;;6.40;4.10;;;6.80;99.90;;;;;;5049636;28;20987;-75
2021/04/02 05:40:29;;;;;;;8.83;3.63;;;6.90;99.90;;;;;;5049013;28;20485;-74
2021/04/02 05:43:00;;;;;;;7.50;3.63;;;7.10;99.90;;;;;;5049521;28;21172;-74
2021/04/02 05:45:29;;;;;;;6.40;4.03;;;7.20;99.90;;;;;;5049605;28;20543;-74
2021/04/02 05:48:00;;;;;;;6.33;4.07;;;7.30;99.90;;;;;;5049530;28;20591;-74
2021/04/02 05:50:30;;;;;;;4.50;3.37;;;7.50;99.90;;;;;;5049572;28;20467;-75
2021/04/02 05:53:01;;;;;;;6.90;4.83;;;7.70;99.90;;;;;;5049850;28;20474;-75
2021/04/02 05:55:29;;;;;;;6.20;4.80;;;7.90;99.90;;;;;;5049639;28;21005;-74
2021/04/02 05:57:56;;;;;;;8.23;4.50;;;8.00;99.90;;;;;;5052770;28;21029;-74
2021/04/02 06:00:24;;;;;;;8.00;5.20;;;8.00;99.90;;;;;;5053559;28;20534;-75
2021/04/02 06:02:50;;;;;;;9.43;5.40;;;7.90;99.90;;;;;;5053574;28;20534;-74
2021/04/02 06:05:18;;;;;;;6.40;5.30;;;7.80;99.90;;;;;;5053319;28;20444;-75
2021/04/02 06:07:45;;;;;;;5.90;4.67;;;7.70;99.90;;;;;;5053009;28;20582;-74
2021/04/02 06:10:12;;;;;;;10.10;4.90;;;7.60;99.90;;;;;;5053279;28;20444;-74
2021/04/02 06:12:41;;;;;;;9.20;4.97;;;7.60;99.90;;;;;;5053453;28;20534;-75
2021/04/02 06:15:08;;;;;;;6.70;5.30;;;7.50;99.90;;;;;;5053268;28;20478;-74
2021/04/02 06:17:57;;;;;;;7.10;5.13;;;7.60;99.90;;;;;;5053292;28;20542;-74
2021/04/02 06:20:26;;;;;;;7.47;5.40;;;7.60;99.90;;;;;;5053009;28;21024;-74
2021/04/02 06:23:07;;;;;;;6.47;4.50;;;7.70;99.90;;;;;;5053604;28;20519;-74
2021/04/02 06:25:33;;;;;;;7.80;5.43;;;7.70;99.90;;;;;;5053177;28;20829;-74
2021/04/02 06:28:00;;;;;;;6.43;4.80;;;7.70;99.90;;;;;;5052861;28;20570;-74
2021/04/02 06:30:28;;;;;;;9.77;5.40;;;7.70;99.90;;;;;;5052820;28;20482;-74
2021/04/02 06:32:54;;;;;;;7.20;5.33;;;7.70;99.90;;;;;;5052918;28;20448;-74
2021/04/02 06:35:25;;;;;;;13.00;5.63;;;7.80;99.90;;;;;;5053157;28;20535;-75
2021/04/02 06:37:55;;;;;;;7.67;5.87;;;7.80;99.90;;;;;;5053003;28;20485;-74
2021/04/02 06:40:23;;;;;;;8.87;6.20;;;7.90;99.90;;;;;;5052794;28;20448;-76
2021/04/02 06:42:51;;;;;;;6.50;5.40;;;8.00;99.90;;;;;;5053060;28;20477;-75
2021/04/02 06:45:20;;;;;;;8.03;6.60;;;8.10;99.90;;;;;;5052706;28;21017;-74
2021/04/02 06:47:46;;;;;;;5.80;4.93;;;8.20;99.90;;;;;;5052864;28;20566;-75
2021/04/02 06:50:18;;;;;;;8.80;6.60;;;8.30;99.90;;;;;;5052395;28;20531;-75
2021/04/02 06:52:49;;;;;;;8.83;6.57;;;8.40;99.90;;;;;;5052627;28;21001;-75
2021/04/02 06:55:16;;;;;;;6.83;5.77;;;8.50;99.90;;;;;;5052549;28;20942;-74
2021/04/02 06:57:43;;;;;;;6.67;5.97;;;8.60;99.90;;;;;;5052491;28;20902;-74
2021/04/02 07:00:10;;;;;;;8.77;7.00;;;8.70;99.90;;;;;;5052255;28;20530;-75
2021/04/02 07:02:42;;;;;;;7.60;5.77;;;8.80;99.90;;;;;;5052852;28;20543;-74
2021/04/02 07:05:09;;;;;;;8.87;6.00;;;8.80;99.90;;;;;;5053037;28;20479;-78
2021/04/02 07:07:38;;;;;;;10.97;7.20;;;8.90;99.90;;;;;;5051498;28;20575;-73
2021/04/02 07:10:08;;;;;;;9.57;7.53;;;8.90;99.90;;;;;;5051824;28;20436;-74
2021/04/02 07:12:36;;;;;;;8.80;6.60;;;8.80;99.90;;;;;;5049286;28;20548;-74
2021/04/02 07:15:03;;;;;;;10.00;7.37;;;8.80;99.90;;;;;;5051519;28;20943;-74
2021/04/02 07:17:30;;;;;;;11.33;7.20;;;8.90;99.90;;;;;;5051245;28;20535;-74
2021/04/02 07:19:57;;;;;;;10.63;7.13;;;8.90;99.90;;;;;;5051370;28;20523;-74
2021/04/02 07:22:24;;;;;;;7.90;6.57;;;8.90;99.90;;;;;;5051644;28;20539;-74
2021/04/02 07:24:52;;;;;;;9.90;8.37;;;8.90;99.90;;;;;;5052020;28;21261;-74
2021/04/02 07:27:19;;;;;;;8.80;7.03;;;9.00;99.90;;;;;;5051893;28;20574;-75
2021/04/02 07:29:45;;;;;;;9.03;7.33;;;9.00;99.90;;;;;;5051402;28;20452;-75
2021/04/02 07:32:12;;;;;;;10.33;6.97;;;9.10;99.90;;;;;;5051716;28;20527;-76
2021/04/02 07:34:39;;;;;;;9.27;7.40;;;9.10;99.90;;;;;;5051501;28;20535;-77
2021/04/02 07:37:07;;;;;;;8.97;7.90;;;9.10;99.90;;;;;;5050033;28;20555;-75
2021/04/02 07:39:33;;;;;;;10.53;8.20;;;9.10;99.90;;;;;;5048890;28;20456;-72
2021/04/02 07:42:00;;;;;;;9.37;6.87;;;9.20;99.90;;;;;;5051416;28;20466;-72
2021/04/02 07:44:35;;;;;;;9.30;8.33;;;9.20;99.90;;;;;;5051354;28;20530;-75
2021/04/02 07:47:08;;;;;;;10.50;8.63;;;9.20;99.90;;;;;;5054611;28;20475;-72
2021/04/02 07:49:39;;;;;;;11.03;8.40;;;9.30;99.90;;;;;;5050634;28;20535;-74
2021/04/02 07:52:06;;;;;;;10.67;7.87;;;9.40;99.90;;;;;;5049571;28;20482;-75
2021/04/02 07:54:35;;;;;;;10.10;8.07;;;9.40;99.90;;;;;;5047667;28;20483;-74
2021/04/02 07:57:13;;;;;;;11.67;7.80;;;9.40;99.90;;;;;;5048009;28;20447;-74
2021/04/02 07:59:46;;;;;;;10.70;7.23;;;9.30;99.90;;;;;;5048338;28;20482;-74
2021/04/02 08:02:15;;;;;;;10.50;8.03;;;9.40;99.90;;;;;;5050472;28;20472;-74
2021/04/02 08:04:43;;;;;;;8.30;7.37;;;9.50;99.90;;;;;;5051022;28;20506;-74
2021/04/02 08:07:17;;;;;;;10.20;8.10;;;9.60;99.90;;;;;;5046799;28;20514;-73
2021/04/02 08:09:47;;;;;;;11.50;8.40;;;9.70;99.90;;;;;;5050930;28;20519;-74
2021/04/02 08:12:15;;;;;;;9.17;8.03;;;9.60;99.90;;;;;;5052383;28;20456;-74
2021/04/02 08:14:49;;;;;;;9.67;7.77;;;9.60;99.90;;;;;;5050924;28;20517;-73
2021/04/02 08:17:19;;;;;;;10.03;8.63;;;9.70;99.90;;;;;;5051370;28;20895;-72
2021/04/02 08:19:46;;;;;;;10.87;9.30;;;9.80;99.90;;;;;;5049794;28;20494;-71
2021/04/02 08:22:15;;;;;;;9.23;8.33;;;9.90;99.90;;;;;;5050813;28;20539;-71
2021/04/02 08:24:44;;;;;;;9.53;8.20;;;10.10;99.90;;;;;;5050762;28;20483;-72
2021/04/02 08:27:12;;;;;;;9.40;8.47;;;10.20;99.90;;;;;;5050531;28;20558;-72
2021/04/02 08:29:40;;;;;;;13.07;8.70;;;10.20;99.90;;;;;;5050718;28;20535;-72
2021/04/02 08:32:12;;;;;;;12.03;8.80;;;10.30;99.90;;;;;;5050695;28;20535;-73
2021/04/02 08:34:39;;;;;;;10.33;8.40;;;10.30;99.90;;;;;;5050682;28;20543;-72
2021/04/02 08:37:11;;;;;;;11.17;9.60;;;10.10;99.90;;;;;;5050319;28;20518;-72
2021/04/02 08:39:38;;;;;;;10.63;8.70;;;10.20;99.90;;;;;;5043070;28;20480;-74
2021/04/02 08:42:06;;;;;;;10.20;8.50;;;10.30;99.90;;;;;;5050391;28;20531;-72
2021/04/02 08:44:34;;;;;;;10.97;8.43;;;10.40;99.90;;;;;;5050475;28;20534;-71
2021/04/02 08:47:03;;;;;;;10.00;8.90;;;10.40;99.90;;;;;;5047697;28;20458;-71
2021/04/02 08:49:37;;;;;;;10.47;9.10;;;10.60;99.90;;;;;;5046597;28;20580;-71
2021/04/02 08:52:07;;;;;;;10.00;7.77;;;10.70;99.90;;;;;;5063311;28;20538;-71
2021/04/02 08:54:34;;;;;;;11.50;9.27;;;10.70;99.90;;;;;;5064476;28;20463;-71
2021/04/02 08:57:01;;;;;;;11.63;9.50;;;10.80;99.90;;;;;;5068199;28;20537;-71
2021/04/02 08:59:31;;;;;;;10.47;9.07;;;10.90;99.90;;;;;;5070412;28;20533;-73
2021/04/02 09:01:57;;;;;;;11.17;9.90;;;11.10;99.90;;;;;;5070182;28;20457;-71
2021/04/02 09:04:24;;;;;;;11.50;8.53;;;11.30;99.90;;;;;;5069755;28;20530;-72
2021/04/02 09:06:52;;;;;;;11.33;9.40;;;11.30;99.90;;;;;;5055084;28;20819;-72
2021/04/02 09:09:20;;;;;;;10.03;8.40;;;11.30;99.90;;;;;;5067532;28;20532;-72
2021/04/02 09:11:49;;;;;;;12.00;8.67;;;11.20;99.90;;;;;;5059306;28;20980;-73
2021/04/02 09:14:16;;;;;;;10.90;9.73;;;11.30;99.90;;;;;;5051539;28;20468;-71
2021/04/02 09:16:45;;;;;;;13.83;8.90;;;11.50;99.90;;;;;;5057482;28;20526;-71
2021/04/02 09:19:13;;;;;;;11.53;9.37;;;11.80;99.90;;;;;;5063528;28;20568;-72
2021/04/02 09:21:40;;;;;;;9.93;8.77;;;11.90;99.90;;;;;;5046917;28;20460;-72
2021/04/02 09:24:08;;;;;;;11.60;9.13;;;12.20;99.90;;;;;;5048947;28;20527;-71
2021/04/02 09:26:37;;;;;;;11.73;9.70;;;12.30;99.90;;;;;;5052533;28;20463;-71
2021/04/02 09:29:04;;;;;;;12.90;9.57;;;11.70;99.90;;;;;;5060240;28;20521;-71
2021/04/02 09:31:33;;;;;;;10.37;9.13;;;11.30;99.90;;;;;;5054113;28;20483;-72
2021/04/02 09:34:01;;;;;;;10.93;8.50;;;11.20;99.90;;;;;;5056271;28;20493;-71
2021/04/02 09:36:30;;;;;;;9.47;8.57;;;11.70;99.90;;;;;;5056506;28;20446;-71
2021/04/02 09:39:05;;;;;;;10.33;9.20;;;12.20;99.90;;;;;;5056475;28;20891;-71
2021/04/02 09:41:33;;;;;;;11.03;9.90;;;11.90;99.90;;;;;;5056035;28;20489;-71
2021/04/02 09:44:07;;;;;;;10.13;9.13;;;11.70;99.90;;;;;;5059652;28;20488;-72
2021/04/02 09:46:36;;;;;;;12.83;10.13;;;11.90;99.90;;;;;;5050528;28;20444;-71
2021/04/02 09:49:07;;;;;;;10.60;8.53;;;12.40;99.90;;;;;;5056063;28;20578;-71
2021/04/02 09:51:36;;;;;;;10.20;9.03;;;12.80;99.00;;;;;;5055794;28;20938;-72
2021/04/02 09:54:02;;;;;;;9.90;8.90;;;13.30;97.90;;;;;;5056236;28;20526;-72
2021/04/02 09:56:29;;;;;;;9.93;8.93;;;13.80;97.10;;;;;;5056159;28;20450;-72
2021/04/02 09:58:56;;;;;;;10.57;9.47;;;13.70;96.90;;;;;;5062093;28;20462;-72
2021/04/02 10:01:22;;;;;;;12.03;10.30;;;13.50;96.80;;;;;;5073773;28;20526;-71
2021/04/02 10:03:50;;;;;;;10.33;9.13;;;13.30;97.50;;;;;;5074154;28;20435;-72
2021/04/02 10:06:17;;;;;;;12.53;9.83;;;13.30;97.60;;;;;;5073527;28;20455;-72
2021/04/02 10:08:43;;;;;;;10.07;8.83;;;13.60;96.80;;;;;;5075811;28;20627;-72
2021/04/02 10:11:10;;;;;;;11.17;9.90;;;13.90;96.70;;;;;;5075678;28;20445;-71
2021/04/02 10:13:36;;;;;;;11.30;9.87;;;13.80;96.20;;;;;;5075604;28;20553;-72
2021/04/02 10:16:04;;;;;;;11.13;9.80;;;13.50;95.90;;;;;;5073275;28;20526;-72
2021/04/02 10:18:30;;;;;;;11.17;9.47;;;13.00;95.80;;;;;;5070118;28;20459;-72
2021/04/02 10:20:57;;;;;;;10.50;9.40;;;12.80;96.40;;;;;;5075711;28;20486;-72
2021/04/02 10:23:23;;;;;;;9.97;8.80;;;13.00;97.60;;;;;;5075811;28;20486;-71
2021/04/02 10:25:50;;;;;;;11.50;9.80;;;13.00;97.30;;;;;;5075848;28;20585;-72
2021/04/02 10:28:16;;;;;;;11.53;10.33;;;12.80;97.50;;;;;;5075490;28;20486;-71
2021/04/02 10:30:43;;;;;;;10.67;9.57;;;12.90;97.30;;;;;;5075332;28;20451;-72
2021/04/02 10:33:10;;;;;;;11.10;9.30;;;13.50;96.50;;;;;;5075821;28;20438;-71
2021/04/02 10:35:37;;;;;;;10.20;9.00;;;13.90;94.90;;;;;;5075645;28;21024;-72
2021/04/02 10:38:04;;;;;;;11.33;8.83;;;14.40;95.30;;;;;;5070811;28;20542;-72
2021/04/02 10:40:30;;;;;;;10.60;8.80;;;14.80;93.50;;;;;;5065151;28;20442;-71
2021/04/02 10:42:57;;;;;;;10.93;9.80;;;14.90;93.20;;;;;;5072697;28;20542;-72
2021/04/02 10:45:24;;;;;;;11.37;10.23;;;15.00;91.90;;;;;;5072631;28;20526;-71
2021/04/02 10:47:50;;;;;;;10.30;9.20;;;14.80;91.50;;;;;;5065887;28;20571;-72
2021/04/02 10:50:18;;;;;;;10.10;9.07;;;14.10;91.60;;;;;;5057723;28;20455;-70
2021/04/02 10:52:44;;;;;;;13.20;9.83;;;14.10;92.50;;;;;;5052414;28;20531;-71
2021/04/02 10:55:12;;;;;;;10.90;9.37;;;14.00;92.80;;;;;;5052269;28;20527;-71
2021/04/02 10:57:38;;;;;;;10.07;9.07;;;13.60;92.20;;;;;;5054209;28;20531;-72
2021/04/02 11:00:06;;;;;;;8.70;7.80;;;13.80;92.50;;;;;;5052631;28;21038;-71
2021/04/02 11:02:34;;;;;;;10.07;8.70;;;14.50;91.90;;;;;;5052177;28;20811;-70
2021/04/02 11:05:00;;;;;;;9.57;8.37;;;14.40;90.50;;;;;;5052539;28;20479;-72
2021/04/02 11:07:28;;;;;;;7.73;7.00;;;14.30;92.20;;;;;;5052096;28;20468;-71
2021/04/02 11:09:54;;;;;;;8.57;7.67;;;14.90;90.00;;;;;;5051804;28;20480;-72
2021/04/02 11:12:27;;;;;;;11.40;8.63;;;15.20;86.80;;;;;;5052214;28;20624;-72
2021/04/02 11:14:54;;;;;;;9.63;8.63;;;15.30;87.00;;;;;;5052187;28;20456;-71
2021/04/02 11:17:20;;;;;;;8.37;7.47;;;15.10;89.10;;;;;;5051786;28;21234;-72
2021/04/02 11:19:47;;;;;;;8.80;8.00;;;15.70;86.70;;;;;;5051804;28;20863;-72
2021/04/02 11:22:13;;;;;;;7.87;7.07;;;16.00;86.90;;;;;;5051738;28;20511;-72
2021/04/02 11:24:41;;;;;;;9.87;7.67;;;16.10;82.30;;;;;;5051885;28;20532;-73
2021/04/02 11:27:08;;;;;;;10.97;7.13;;;16.10;82.00;;;;;;5051994;28;20574;-72
2021/04/02 11:29:35;;;;;;;8.03;7.00;;;16.20;83.40;;;;;;5056222;28;20524;-71
2021/04/02 11:32:04;;;;;;;8.90;8.03;;;16.10;83.00;;;;;;5058943;28;20448;-72
2021/04/02 11:34:31;;;;;;;8.67;6.73;;;16.30;82.30;;;;;;5061998;28;20479;-71
2021/04/02 11:36:57;;;;;;;9.07;6.83;;;16.40;80.20;;;;;;5060432;28;20933;-71
2021/04/02 11:39:24;;;;;;;8.07;7.27;;;15.70;79.50;;;;;;5055659;28;20939;-70
2021/04/02 11:41:51;;;;;;;8.10;6.97;;;15.20;80.40;;;;;;5056213;28;20737;-73
2021/04/02 11:44:18;;;;;;;6.67;5.77;;;15.30;78.80;;;;;;5062016;28;20444;-71
2021/04/02 11:46:45;;;;;;;7.27;6.57;;;15.80;83.10;;;;;;5054450;28;21018;-72
2021/04/02 11:49:11;;;;;;;8.40;6.90;;;16.30;83.20;;;;;;5055220;28;20513;-71
2021/04/02 11:51:37;;;;;;;7.40;6.10;;;17.00;76.70;;;;;;5056356;28;20489;-72
2021/04/02 11:54:05;;;;;;;7.53;6.83;;;17.50;77.50;;;;;;5051888;28;20452;-72
2021/04/02 11:56:31;;;;;;;7.67;6.97;;;17.50;75.50;;;;;;5055377;28;20942;-72
2021/04/02 11:58:59;;;;;;;10.10;6.33;;;17.40;74.90;;;;;;5046409;28;20548;-71
2021/04/02 12:01:26;;;;;;;8.80;6.93;;;17.70;75.00;;;;;;5052444;28;20448;-71
2021/04/02 12:03:53;;;;;;;9.60;5.90;;;17.90;74.00;;;;;;5062853;28;20538;-72
2021/04/02 12:06:19;;;;;;;7.37;6.60;;;18.20;72.90;;;;;;5052634;28;20522;-71
2021/04/02 12:08:45;;;;;;;7.90;6.53;;;18.20;71.80;;;;;;5050996;28;20483;-70
2021/04/02 12:11:12;;;;;;;7.47;6.60;;;18.70;72.10;;;;;;5050737;28;20444;-71
2021/04/02 12:13:38;;;;;;;6.90;6.30;;;19.60;69.70;;;;;;5051147;28;21025;-72
2021/04/02 12:16:07;;;;;;;7.47;6.87;;;19.70;67.30;;;;;;5050720;28;20498;-71
2021/04/02 12:18:33;;;;;;;6.83;6.23;;;18.80;68.00;;;;;;5050663;28;20466;-71
2021/04/02 12:20:59;;;;;;;7.07;6.27;;;18.60;68.50;;;;;;5051129;28;20444;-71
2021/04/02 12:23:26;;;;;;;7.37;6.67;;;18.50;69.70;;;;;;5052182;28;20446;-71
2021/04/02 12:25:52;;;;;;;6.80;5.93;;;17.60;68.80;;;;;;5050610;28;20594;-71
2021/04/02 12:28:19;;;;;;;6.27;5.60;;;18.00;71.70;;;;;;5050408;28;21044;-71
2021/04/02 12:30:45;;;;;;;6.80;6.10;;;19.60;68.60;;;;;;5050140;28;20974;-71
2021/04/02 12:33:12;;;;;;;6.70;6.10;;;20.80;61.80;;;;;;5050459;28;20540;-71
2021/04/02 12:35:39;;;;;;;7.90;6.30;;;20.90;59.70;;;;;;5052471;28;20439;-71
2021/04/02 12:38:08;;;;;;;6.93;6.23;;;20.00;60.90;;;;;;5054806;28;20460;-70
2021/04/02 12:40:35;;;;;;;8.73;5.80;;;19.00;62.50;;;;;;5050174;28;20827;-71
2021/04/02 12:43:02;;;;;;;6.10;5.60;;;19.30;62.30;;;;;;5050380;28;20491;-71
2021/04/02 12:45:29;;;;;;;6.03;5.20;;;19.40;61.30;;;;;;5050141;28;20444;-71
2021/04/02 12:47:55;;;;;;;5.77;5.23;;;19.50;61.90;;;;;;5050007;28;20515;-73